createdAt,value
2023-01-13T00:02:07.351Z,100053.69
2023-01-13T00:04:39.332Z,100054.16
2023-01-13T00:07:11.731Z,100040.59
2023-01-13T00:09:46.810Z,100047.25
2023-01-13T00:12:20.813Z,100044.16
2023-01-13T00:14:52.874Z,100055.28
2023-01-13T00:19:59.673Z,100048.97
2023-01-13T00:22:32.651Z,100054.63
2023-01-13T00:25:08.472Z,100055.09
2023-01-13T00:27:41.128Z,100053.03
2023-01-13T00:30:14.614Z,100053.28
2023-01-13T00:32:47.410Z,100048.59
2023-01-13T00:35:19.793Z,100037.91
2023-01-13T00:37:52.289Z,100038.41
2023-01-13T00:40:27.368Z,100034.31
2023-01-13T00:43:12.292Z,100038.59
2023-01-13T00:45:44.525Z,100041.66
2023-01-13T00:48:17.189Z,100049.59
2023-01-13T00:50:49.949Z,100047.84
2023-01-13T00:53:22.448Z,100044.59
2023-01-13T00:56:03.038Z,100043.03
2023-01-13T00:58:46.831Z,100050.00
2023-01-13T01:01:21.967Z,100047.25
2023-01-13T01:03:55.868Z,100043.19
2023-01-13T01:06:29.397Z,100045.22
2023-01-13T01:09:03.351Z,100045.03
2023-01-13T01:11:38.177Z,100045.22
2023-01-13T01:14:10.543Z,100046.34
2023-01-13T01:16:44.413Z,100041.78
2023-01-13T01:19:19.253Z,100047.22
2023-01-13T01:21:51.151Z,100045.53
2023-01-13T01:24:23.425Z,100049.97
2023-01-13T01:26:57.830Z,100041.78
2023-01-13T01:29:30.309Z,100048.38
2023-01-13T01:32:02.190Z,100045.94
2023-01-13T01:34:34.895Z,100051.97
2023-01-13T01:37:06.896Z,100035.72
2023-01-13T01:39:39.321Z,100037.16
2023-01-13T01:42:30.847Z,100031.66
2023-01-13T01:45:15.209Z,100034.06
2023-01-13T01:47:51.755Z,100034.94
2023-01-13T01:50:24.372Z,100035.38
2023-01-13T01:53:00.209Z,100034.66
2023-01-13T01:55:37.235Z,100031.53
2023-01-13T01:58:18.766Z,100023.94
2023-01-13T02:00:51.495Z,100032.91
2023-01-13T02:03:24.405Z,100021.06
2023-01-13T02:06:11.588Z,100021.69
2023-01-13T02:08:44.783Z,100029.56
2023-01-13T02:11:43.988Z,100011.97
2023-01-13T02:14:19.361Z,100017.66
2023-01-13T02:17:12.082Z,100008.41
2023-01-13T02:20:27.710Z,100003.84
2023-01-13T02:23:37.049Z,100001.00
2023-01-13T02:26:41.532Z,100011.44
2023-01-13T02:29:32.391Z,100002.50
2023-01-13T02:32:16.328Z,100005.88
2023-01-13T02:34:56.776Z,100008.47
2023-01-13T02:37:33.521Z,100001.34
2023-01-13T02:40:10.491Z,100004.25
2023-01-13T02:43:01.113Z,99999.81
2023-01-13T02:45:39.684Z,100005.06
2023-01-13T02:48:19.250Z,99998.31
2023-01-13T02:50:56.953Z,99994.56
2023-01-13T02:53:34.663Z,99999.72
2023-01-13T02:56:10.077Z,99995.28
2023-01-13T02:58:45.171Z,99993.94
2023-01-13T03:01:18.118Z,99990.34
2023-01-13T03:03:53.332Z,99990.78
2023-01-13T03:06:40.210Z,99991.28
2023-01-13T03:09:20.211Z,99993.22
2023-01-13T03:11:59.890Z,99988.94
2023-01-13T03:14:41.700Z,99984.88
2023-01-13T03:17:25.453Z,99972.59
2023-01-13T03:20:08.891Z,99969.00
2023-01-13T03:22:48.479Z,99966.81
2023-01-13T03:25:27.411Z,99973.59
2023-01-13T03:28:02.838Z,99978.75
2023-01-13T03:30:41.370Z,99983.69
2023-01-13T03:33:19.003Z,99981.06
2023-01-13T03:35:58.931Z,99980.91
2023-01-13T03:38:48.378Z,99974.75
2023-01-13T03:41:25.191Z,99985.91
2023-01-13T03:44:19.831Z,99976.56
2023-01-13T03:46:57.911Z,99978.41
2023-01-13T03:49:35.794Z,99983.78
2023-01-13T03:52:15.712Z,99983.59
2023-01-13T03:54:52.769Z,99975.94
2023-01-13T03:57:39.363Z,99982.81
2023-01-13T04:00:16.008Z,99982.81
2023-01-13T04:02:57.971Z,99967.88
2023-01-13T04:05:32.054Z,99968.16
2023-01-13T04:08:19.210Z,99971.00
2023-01-13T04:10:58.678Z,99959.66
2023-01-13T04:13:35.054Z,99966.16
2023-01-13T04:16:11.547Z,99968.06
2023-01-13T04:18:59.196Z,99971.72
2023-01-13T04:21:46.530Z,99971.31
2023-01-13T04:24:24.022Z,99968.22
2023-01-13T04:26:56.932Z,99969.56
2023-01-13T04:29:28.830Z,99969.91
2023-01-13T04:32:07.836Z,99980.41
2023-01-13T04:34:39.757Z,99978.81
2023-01-13T04:37:12.130Z,99971.38
2023-01-13T04:39:46.771Z,99984.28
2023-01-13T04:42:19.097Z,99986.09
2023-01-13T04:44:50.779Z,99985.03
2023-01-13T04:47:23.051Z,99975.22
2023-01-13T04:49:54.777Z,99981.50
2023-01-13T04:52:27.093Z,99983.41
2023-01-13T04:55:01.664Z,99980.34
2023-01-13T04:57:35.337Z,99991.66
2023-01-13T05:00:09.792Z,99993.41
2023-01-13T05:02:42.255Z,99993.13
2023-01-13T05:05:16.091Z,100002.66
2023-01-13T05:07:49.113Z,100006.19
2023-01-13T05:10:27.531Z,100004.34
2023-01-13T05:16:40.454Z,100006.22
2023-01-13T05:19:13.596Z,100011.00
2023-01-13T05:21:58.012Z,100013.19
2023-01-13T05:24:43.432Z,100008.84
2023-01-13T05:27:18.323Z,100009.38
2023-01-13T05:29:50.873Z,100011.66
2023-01-13T05:32:22.737Z,100014.22
2023-01-13T05:34:55.270Z,100014.81
2023-01-13T05:37:28.152Z,100006.06
2023-01-13T05:40:12.954Z,100017.69
2023-01-13T05:43:00.278Z,100009.63
2023-01-13T05:45:34.437Z,100005.13
2023-01-13T05:48:06.403Z,100003.41
2023-01-13T05:50:38.879Z,100011.75
2023-01-13T05:53:10.870Z,100010.72
2023-01-13T05:55:44.214Z,100034.47
2023-01-13T05:58:20.476Z,100042.34
2023-01-13T06:00:55.580Z,100048.81
2023-01-13T06:03:27.398Z,100048.28
2023-01-13T06:06:02.000Z,100039.38
2023-01-13T06:08:34.576Z,100043.34
2023-01-13T06:11:07.044Z,100036.28
2023-01-13T06:13:41.782Z,100024.69
2023-01-13T06:16:14.270Z,100018.56
2023-01-13T06:18:46.034Z,100035.06
2023-01-13T06:21:33.512Z,100045.34
2023-01-13T06:24:05.589Z,100045.53
2023-01-13T06:26:42.034Z,100042.22
2023-01-13T06:29:17.153Z,100044.25
2023-01-13T06:31:49.673Z,100038.75
2023-01-13T06:34:21.898Z,100048.81
2023-01-13T06:36:57.217Z,100047.00
2023-01-13T06:39:31.972Z,100045.09
2023-01-13T06:42:16.854Z,100039.06
2023-01-13T06:44:52.492Z,100036.06
2023-01-13T06:47:25.475Z,100028.38
2023-01-13T06:49:57.635Z,100019.78
2023-01-13T06:52:30.949Z,99991.31
2023-01-13T06:55:03.253Z,100006.31
2023-01-13T06:57:35.797Z,100022.03
2023-01-13T07:00:12.732Z,100028.19
2023-01-13T07:02:45.300Z,100026.13
2023-01-13T07:05:18.594Z,100027.75
2023-01-13T07:07:50.876Z,100031.28
2023-01-13T07:10:25.261Z,100027.66
2023-01-13T07:13:09.794Z,100029.22
2023-01-13T07:15:44.372Z,100032.47
2023-01-13T07:18:16.893Z,100024.81
2023-01-13T07:20:55.614Z,100014.78
2023-01-13T07:23:28.379Z,99995.69
2023-01-13T07:26:00.999Z,99994.44
2023-01-13T07:28:34.389Z,99993.03
2023-01-13T07:31:16.031Z,100019.59
2023-01-13T07:33:48.876Z,100031.31
2023-01-13T07:36:21.031Z,100010.06
2023-01-13T07:38:54.912Z,100023.03
2023-01-13T07:41:39.431Z,100035.97
2023-01-13T07:44:12.273Z,100023.03
2023-01-13T07:46:47.423Z,100035.69
2023-01-13T07:49:20.261Z,100038.81
2023-01-13T07:51:52.541Z,100036.44
2023-01-13T07:54:39.730Z,100053.25
2023-01-13T07:57:13.113Z,100044.59
2023-01-13T07:59:45.955Z,100043.34
2023-01-13T08:02:22.118Z,100040.69
2023-01-13T08:04:54.991Z,100043.81
2023-01-13T08:07:27.380Z,100062.53
2023-01-13T08:10:00.181Z,100068.25
2023-01-13T08:12:48.786Z,100071.72
2023-01-13T08:15:27.330Z,100080.06
2023-01-13T08:18:02.151Z,100070.56
2023-01-13T08:20:35.099Z,100087.50
2023-01-13T08:23:07.857Z,100098.72
2023-01-13T08:25:40.781Z,100107.41
2023-01-13T08:28:13.321Z,100108.16
2023-01-13T08:30:46.182Z,100095.84
2023-01-13T08:33:21.651Z,100088.59
2023-01-13T08:35:54.442Z,100087.31
2023-01-13T08:38:27.269Z,100073.00
2023-01-13T08:41:00.183Z,100084.44
2023-01-13T08:43:32.459Z,100090.31
2023-01-13T08:46:07.509Z,100083.31
2023-01-13T08:48:42.669Z,100063.19
2023-01-13T08:51:15.584Z,100092.91
2023-01-13T08:53:47.835Z,100104.03
2023-01-13T08:56:20.511Z,100114.56
2023-01-13T08:58:52.754Z,100117.81
2023-01-13T09:01:27.279Z,100119.75
2023-01-13T09:04:03.201Z,100115.47
2023-01-13T09:06:36.485Z,100098.66
2023-01-13T09:09:08.723Z,100075.88
2023-01-13T09:11:57.545Z,100060.16
2023-01-13T09:14:32.110Z,99975.47
2023-01-13T09:17:05.137Z,99973.59
2023-01-13T09:19:40.521Z,100051.25
2023-01-13T09:22:17.896Z,100091.16
2023-01-13T09:24:50.244Z,100104.31
2023-01-13T09:27:24.075Z,100096.97
2023-01-13T09:29:56.139Z,100116.47
2023-01-13T09:32:28.801Z,100097.63
2023-01-13T09:35:01.100Z,100095.91
2023-01-13T09:37:35.289Z,100085.66
2023-01-13T09:40:09.930Z,100088.78
2023-01-13T09:43:00.706Z,100079.78
2023-01-13T09:45:37.911Z,100067.16
2023-01-13T09:48:18.083Z,100070.63
2023-01-13T09:51:10.378Z,100070.09
2023-01-13T09:53:47.360Z,100085.13
2023-01-13T09:56:19.758Z,100091.88
2023-01-13T09:58:52.566Z,100087.50
2023-01-13T10:01:33.021Z,100102.16
2023-01-13T10:04:09.245Z,100087.53
2023-01-13T10:06:49.503Z,100097.94
2023-01-13T10:09:26.627Z,100101.28
2023-01-13T10:12:15.028Z,100097.84
2023-01-13T10:14:56.055Z,100111.97
2023-01-13T10:17:35.603Z,100110.31
2023-01-13T10:20:20.353Z,100101.09
2023-01-13T10:23:10.343Z,100115.50
2023-01-13T10:26:04.158Z,100105.38
2023-01-13T10:28:36.062Z,100105.47
2023-01-13T10:31:15.080Z,100103.34
2023-01-13T10:33:47.301Z,100103.22
2023-01-13T10:36:21.878Z,100103.09
2023-01-13T10:38:57.866Z,100118.56
2023-01-13T10:41:33.523Z,100103.78
2023-01-13T10:44:09.588Z,100100.53
2023-01-13T10:46:56.984Z,100099.25
2023-01-13T10:49:36.777Z,100107.50
2023-01-13T10:52:29.770Z,100111.78
2023-01-13T10:55:06.504Z,100107.28
2023-01-13T10:57:40.885Z,100110.13
2023-01-13T11:00:31.164Z,100104.78
2023-01-13T11:03:19.046Z,100099.78
2023-01-13T11:05:59.660Z,100101.09
2023-01-13T11:08:34.407Z,100103.03
2023-01-13T11:11:44.053Z,100111.03
2023-01-13T11:14:39.786Z,100102.16
2023-01-13T11:17:27.253Z,100101.63
2023-01-13T11:20:07.484Z,100102.06
2023-01-13T11:22:45.858Z,100104.25
2023-01-13T11:25:24.561Z,100105.19
2023-01-13T11:28:04.228Z,100103.19
2023-01-13T11:30:49.951Z,100106.28
2023-01-13T11:33:42.729Z,100108.81
2023-01-13T11:36:20.741Z,100107.22
2023-01-13T11:38:55.473Z,100108.22
2023-01-13T11:41:36.355Z,100109.81
2023-01-13T11:44:22.636Z,100105.31
2023-01-13T11:46:56.946Z,100101.25
2023-01-13T11:49:32.234Z,100095.34
2023-01-13T11:52:14.225Z,100103.19
2023-01-13T11:55:04.517Z,100113.88
2023-01-13T11:57:59.165Z,100111.59
2023-01-13T12:00:46.160Z,100105.78
2023-01-13T12:03:31.217Z,100101.00
2023-01-13T12:06:20.062Z,100105.00
2023-01-13T12:09:27.594Z,100109.25
2023-01-13T12:12:23.224Z,100119.47
2023-01-13T12:15:36.101Z,100106.56
2023-01-13T12:18:26.384Z,100114.13
2023-01-13T12:21:14.963Z,100106.94
2023-01-13T12:23:55.154Z,100106.41
2023-01-13T12:26:27.775Z,100117.38
2023-01-13T12:29:06.413Z,100098.97
2023-01-13T12:31:42.447Z,100110.00
2023-01-13T12:34:30.248Z,100124.88
2023-01-13T12:37:11.788Z,100120.31
2023-01-13T12:39:52.545Z,100111.94
2023-01-13T12:42:47.834Z,100117.78
2023-01-13T12:45:33.949Z,100112.44
2023-01-13T12:48:06.016Z,100125.88
2023-01-13T12:50:45.790Z,100127.00
2023-01-13T12:53:34.951Z,100128.75
2023-01-13T12:56:38.980Z,100129.75
2023-01-13T12:59:52.121Z,100141.97
2023-01-13T13:02:37.638Z,100140.91
2023-01-13T13:05:43.205Z,100135.88
2023-01-13T13:09:39.484Z,100129.47
2023-01-13T13:12:48.306Z,100143.03
2023-01-13T13:15:25.486Z,100141.38
2023-01-13T13:18:09.944Z,100139.88
2023-01-13T13:21:00.684Z,100145.38
2023-01-13T13:24:06.625Z,100141.66
2023-01-13T13:26:47.228Z,100150.72
2023-01-13T13:29:30.866Z,100151.69
2023-01-13T13:32:41.443Z,100142.66
2023-01-13T13:35:43.647Z,100152.72
2023-01-13T13:38:55.864Z,100155.81
2023-01-13T13:41:44.855Z,100147.03
2023-01-13T13:44:41.689Z,100156.28
2023-01-13T13:47:16.300Z,100156.31
2023-01-13T13:49:54.153Z,100165.06
2023-01-13T13:52:30.286Z,100164.31
2023-01-13T13:55:13.762Z,100161.22
2023-01-13T13:57:51.011Z,100160.09
2023-01-13T14:00:27.853Z,100161.69
2023-01-13T14:03:02.687Z,100164.19
2023-01-13T14:05:42.021Z,100172.66
2023-01-13T14:08:19.857Z,100172.78
2023-01-13T14:10:52.240Z,100181.38
2023-01-13T14:13:47.418Z,100182.66
2023-01-13T14:16:20.310Z,100170.41
2023-01-13T14:18:52.471Z,100174.31
2023-01-13T14:21:28.785Z,100177.59
2023-01-13T14:24:05.976Z,100169.69
2023-01-13T14:26:38.734Z,100179.59
2023-01-13T14:29:21.891Z,100181.66
2023-01-13T14:31:56.787Z,100182.13
2023-01-13T14:34:33.373Z,100186.56
2023-01-13T14:37:06.386Z,100191.97
2023-01-13T14:39:43.139Z,100180.00
2023-01-13T14:42:17.320Z,100164.13
2023-01-13T14:44:56.395Z,100180.44
2023-01-13T14:47:33.487Z,100172.66
2023-01-13T14:50:09.125Z,100175.59
2023-01-13T14:52:51.125Z,100178.50
2023-01-13T14:55:33.970Z,100184.56
2023-01-13T14:58:26.993Z,100176.19
2023-01-13T15:01:35.360Z,100177.28
2023-01-13T15:04:20.726Z,100179.16
2023-01-13T15:06:55.707Z,100184.75
2023-01-13T15:09:30.768Z,100185.38
2023-01-13T15:12:18.845Z,100187.50
2023-01-13T15:14:54.556Z,100190.66
2023-01-13T15:17:28.650Z,100197.19
2023-01-13T15:20:07.099Z,100197.34
2023-01-13T15:22:39.400Z,100193.06
2023-01-13T15:25:12.379Z,100195.75
2023-01-13T15:27:46.295Z,100208.47
2023-01-13T15:30:20.204Z,100207.66
2023-01-13T15:32:59.725Z,100210.75
2023-01-13T15:35:34.957Z,100221.25
2023-01-13T15:38:14.396Z,100208.78
2023-01-13T15:40:50.714Z,100217.94
2023-01-13T15:43:38.853Z,100214.31
2023-01-13T15:46:34.562Z,100213.56
2023-01-13T15:49:16.693Z,100211.47
2023-01-13T15:51:52.533Z,100215.75
2023-01-13T15:54:25.212Z,100214.59
2023-01-13T15:56:58.220Z,100195.53
2023-01-13T15:59:31.491Z,100207.25
2023-01-13T16:02:04.589Z,100207.38
2023-01-13T16:04:40.032Z,100210.13
2023-01-13T16:07:18.580Z,100212.03
2023-01-13T16:09:50.985Z,100221.94
2023-01-13T16:12:23.369Z,100214.78
2023-01-13T16:14:55.195Z,100219.91
2023-01-13T16:17:30.382Z,100224.06
2023-01-13T16:20:05.241Z,100229.72
2023-01-13T16:22:37.591Z,100229.38
2023-01-13T16:25:10.473Z,100239.19
2023-01-13T16:27:43.079Z,100244.97
2023-01-13T16:30:25.884Z,100248.25
2023-01-13T16:32:58.215Z,100261.91
2023-01-13T16:35:35.585Z,100251.59
2023-01-13T16:38:19.790Z,100254.81
2023-01-13T16:40:52.623Z,100264.84
2023-01-13T16:43:24.793Z,100256.25
2023-01-13T16:45:56.596Z,100261.09
2023-01-13T16:48:28.754Z,100263.41
2023-01-13T16:51:05.438Z,100281.84
2023-01-13T16:53:37.718Z,100273.75
2023-01-13T16:56:20.914Z,100275.38
2023-01-13T16:58:53.586Z,100280.22
2023-01-13T17:01:28.710Z,100291.75
2023-01-13T17:04:03.358Z,100281.28
2023-01-13T17:06:42.883Z,100287.03
2023-01-13T17:09:19.358Z,100287.75
2023-01-13T17:11:53.441Z,100304.91
2023-01-13T17:14:26.392Z,100307.69
2023-01-13T17:16:59.637Z,100308.53
2023-01-13T17:19:31.806Z,100314.38
2023-01-13T17:22:06.380Z,100314.44
2023-01-13T17:24:38.619Z,100314.94
2023-01-13T17:27:10.168Z,100322.31
2023-01-13T17:32:58.787Z,100328.25
2023-01-13T17:35:30.654Z,100320.06
2023-01-13T17:38:05.205Z,100324.25
2023-01-13T17:40:37.383Z,100329.06
2023-01-13T17:43:09.225Z,100337.22
2023-01-13T17:45:45.047Z,100342.13
2023-01-13T17:48:17.043Z,100342.31
2023-01-13T17:50:52.433Z,100347.41
2023-01-13T17:53:27.115Z,100349.56
2023-01-13T17:55:59.388Z,100349.50
2023-01-13T17:58:31.740Z,100346.28
2023-01-13T18:01:04.148Z,100344.06
2023-01-13T18:03:36.071Z,100343.03
2023-01-13T18:06:09.295Z,100358.75
2023-01-13T18:08:44.149Z,100351.09
2023-01-13T18:11:19.082Z,100360.31
2023-01-13T18:13:55.280Z,100352.88
2023-01-13T18:16:30.263Z,100362.41
2023-01-13T18:19:15.701Z,100366.00
2023-01-13T18:22:01.220Z,100371.19
2023-01-13T18:24:48.394Z,100368.59
2023-01-13T18:27:27.165Z,100360.34
2023-01-13T18:30:01.437Z,100363.88
2023-01-13T18:32:36.144Z,100375.91
2023-01-13T18:35:10.685Z,100379.59
2023-01-13T18:37:45.403Z,100389.78
2023-01-13T18:40:20.342Z,100391.00
2023-01-13T18:42:55.078Z,100388.31
2023-01-13T18:45:29.782Z,100381.09
2023-01-13T18:48:05.156Z,100388.97
2023-01-13T18:50:37.890Z,100396.38
2023-01-13T18:53:10.792Z,100386.09
2023-01-13T18:55:45.769Z,100401.63
2023-01-13T18:58:19.011Z,100401.88
2023-01-13T19:00:51.212Z,100414.19
2023-01-13T19:03:30.051Z,100414.19
2023-01-13T19:06:06.239Z,100408.63
2023-01-13T19:08:38.759Z,100419.28
2023-01-13T19:11:13.819Z,100414.19
2023-01-13T19:13:46.603Z,100416.34
2023-01-13T19:16:19.920Z,100422.94
2023-01-13T19:18:52.769Z,100428.59
2023-01-13T19:21:25.496Z,100426.44
2023-01-13T19:23:58.579Z,100426.59
2023-01-13T19:26:33.421Z,100425.06
2023-01-13T19:29:06.061Z,100427.91
2023-01-13T19:31:38.377Z,100439.78
2023-01-13T19:34:11.099Z,100437.69
2023-01-13T19:36:43.201Z,100454.75
2023-01-13T19:39:15.808Z,100448.75
2023-01-13T19:42:03.125Z,100447.91
2023-01-13T19:44:48.227Z,100450.75
2023-01-13T19:47:20.569Z,100455.09
2023-01-13T19:49:53.327Z,100459.16
2023-01-13T19:52:25.631Z,100461.50
2023-01-13T19:54:58.221Z,100467.72
2023-01-13T19:57:39.356Z,100464.22
2023-01-13T20:03:36.452Z,100478.97
2023-01-13T20:06:10.995Z,100480.50
2023-01-13T20:08:46.484Z,100482.03
2023-01-13T20:11:31.800Z,100482.19
2023-01-13T20:14:07.145Z,100489.72
2023-01-13T20:16:39.696Z,100490.72
2023-01-13T20:19:12.317Z,100502.81
2023-01-13T20:21:46.597Z,100495.41
2023-01-13T20:24:20.658Z,100497.13
2023-01-13T20:26:54.199Z,100504.81
2023-01-13T20:29:29.005Z,100504.16
2023-01-13T20:32:01.668Z,100509.03
2023-01-13T20:34:34.101Z,100504.66
2023-01-13T20:37:06.928Z,100509.03
2023-01-13T20:39:40.478Z,100508.38
2023-01-13T20:42:25.519Z,100507.88
2023-01-13T20:45:01.416Z,100511.88
2023-01-13T20:47:34.285Z,100510.13
2023-01-13T20:50:06.681Z,100511.13
2023-01-13T20:52:39.236Z,100512.41
2023-01-13T20:55:12.015Z,100510.38
2023-01-13T20:57:48.686Z,100515.25
2023-01-13T21:00:24.824Z,100522.16
2023-01-13T21:02:57.516Z,100522.97
2023-01-13T21:05:30.036Z,100516.09
2023-01-13T21:08:02.676Z,100525.81
